»·PEaware :: N7914W KSNA-KVNY

N7914W :: KSNA-KVNY

FLIGHT INFORMATION

Flight Status: Arrived
Operator: Privately registered:
United States
More flights under this callsign
Pilot: Andrew M. (139)
Aircraft: CESSNA 172 SKYHAWK
(C172)
More flights by this aircraft type
Origin: KSNA John Wayne-Orange Co
United States
Destination: KVNY Van Nuys
United States
More flights between these airports :: More routes between these airports
Route: +SLI V23 POPPR SMO CANOG
File this flight plan on PilotEdge
Remarks:
Altitude:
(Current/Filed)
6,000ft
Speed:
(Current/Filed)
110kts
Departed: 04-Feb-19 06:48 PM
Arrived: 04-Feb-19 07:41 PM
Distance/Time
Traveled:
44nm/0:52
Distance/Time
To Go:
Arrived

Flight Plot

Page will automatically refresh every two minutes.

Flight plan parsing failed; only flown route is shown


Map Options




Map Legend


Flown Route
Filed Route
Departure Airport
Arrival Airport
Navaid (VOR, NDB)
Fix

Horizontal Profiles

Position Reports

Time Latitude Longitude Heading Altitude Ground
Speed
04-Feb-19 18:31 33.673186 -117.866263 301 60ft 0kts
04-Feb-19 18:32 33.673186 -117.866263 301 60ft 0kts
04-Feb-19 18:33 33.673186 -117.866263 301 60ft 0kts
04-Feb-19 18:34 33.673186 -117.866263 301 60ft 0kts
04-Feb-19 18:35 33.673186 -117.866263 301 60ft 0kts
04-Feb-19 18:36 33.673186 -117.866263 301 60ft 0kts
04-Feb-19 18:37 33.673186 -117.866263 301 60ft 0kts
04-Feb-19 18:38 33.673186 -117.866263 301 60ft 0kts
04-Feb-19 18:39 33.673186 -117.866263 301 60ft 0kts
04-Feb-19 18:40 33.673186 -117.866263 301 60ft 0kts
04-Feb-19 18:41 33.673571 -117.866996 304 60ft 5kts
04-Feb-19 18:42 33.674829 -117.866626 29 60ft 6kts
04-Feb-19 18:43 33.676709 -117.865426 28 60ft 9kts
04-Feb-19 18:44 33.679033 -117.863968 28 60ft 8kts
04-Feb-19 18:45 33.679995 -117.863681 298 60ft 0kts
04-Feb-19 18:46 33.680112 -117.863969 288 60ft 5kts
04-Feb-19 18:47 33.670447 -117.872136 229 333ft 71kts
04-Feb-19 18:48 33.660261 -117.894515 239 1082ft 72kts
04-Feb-19 18:49 33.650805 -117.915751 246 1770ft 73kts
04-Feb-19 18:50 33.660463 -117.936175 328 2413ft 77kts
04-Feb-19 18:51 33.680029 -117.949877 319 2990ft 84kts
04-Feb-19 18:52 33.698716 -117.966648 313 3593ft 84kts
04-Feb-19 18:53 33.717666 -117.984146 312 3989ft 101kts
04-Feb-19 18:54 33.740760 -118.006655 313 3977ft 109kts
04-Feb-19 18:55 33.763739 -118.028914 315 3982ft 109kts
04-Feb-19 18:56 33.784901 -118.052899 289 3984ft 104kts
04-Feb-19 18:57 33.794015 -118.081465 284 3980ft 101kts
04-Feb-19 18:58 33.801925 -118.108689 283 3999ft 99kts
04-Feb-19 18:59 33.809894 -118.138796 281 4000ft 109kts
04-Feb-19 19:00 33.816799 -118.171243 279 3998ft 110kts
04-Feb-19 19:01 33.823896 -118.204057 284 3998ft 109kts
04-Feb-19 19:02 33.832547 -118.238421 284 3998ft 108kts
04-Feb-19 19:03 33.841280 -118.273099 284 3998ft 108kts
04-Feb-19 19:04 33.858507 -118.299700 316 3994ft 111kts
04-Feb-19 19:05 33.880223 -118.321756 313 3998ft 114kts
04-Feb-19 19:06 33.901762 -118.343289 313 3998ft 115kts
04-Feb-19 19:07 33.923381 -118.364955 313 3998ft 115kts
04-Feb-19 19:08 33.944676 -118.386448 313 3998ft 115kts
04-Feb-19 19:09 33.966139 -118.408138 312 3995ft 109kts
04-Feb-19 19:10 33.985652 -118.428055 312 3996ft 97kts
04-Feb-19 19:11 34.005867 -118.448168 314 4000ft 114kts
04-Feb-19 19:12 34.029488 -118.465068 324 4003ft 107kts
04-Feb-19 19:13 34.053357 -118.480190 324 4016ft 102kts
04-Feb-19 19:14 34.076815 -118.495493 321 4018ft 104kts
04-Feb-19 19:15 34.103746 -118.499269 353 4480ft 102kts
04-Feb-19 19:16 34.140806 -118.494813 350 5178ft 113kts
04-Feb-19 19:17 34.174802 -118.502200 334 5017ft 115kts
04-Feb-19 19:18 34.204746 -118.513989 333 5018ft 113kts
04-Feb-19 19:19 34.234846 -118.525787 334 5017ft 113kts
04-Feb-19 19:20 34.263989 -118.535853 335 5018ft 107kts
04-Feb-19 19:21 34.292855 -118.545409 336 5018ft 109kts
04-Feb-19 19:22 34.322276 -118.555115 338 5021ft 110kts
04-Feb-19 19:23 34.353000 -118.562632 349 5019ft 116kts
04-Feb-19 19:24 34.385076 -118.564162 349 5019ft 114kts
04-Feb-19 19:25 34.416314 -118.565509 349 5018ft 114kts
04-Feb-19 19:26 34.445783 -118.556958 69 5015ft 124kts
04-Feb-19 19:27 34.446673 -118.522787 133 5016ft 100kts
04-Feb-19 19:28 34.427919 -118.510283 188 5019ft 78kts
04-Feb-19 19:29 34.408964 -118.509335 186 5025ft 80kts
04-Feb-19 19:30 34.386510 -118.506112 184 5017ft 75kts
04-Feb-19 19:31 34.366949 -118.504750 191 5013ft 71kts
04-Feb-19 19:32 34.344135 -118.505440 185 4555ft 92kts
04-Feb-19 19:33 34.321750 -118.499774 192 3880ft 88kts
04-Feb-19 19:34 34.300664 -118.500261 170 3103ft 75kts
04-Feb-19 19:35 34.282478 -118.494837 194 2563ft 67kts
04-Feb-19 19:36 34.264439 -118.495542 180 2253ft 58kts
04-Feb-19 19:37 34.247847 -118.493997 178 1723ft 65kts
04-Feb-19 19:38 34.232065 -118.492424 178 1253ft 54kts
04-Feb-19 19:39 34.216717 -118.491005 175 894ft 56kts
04-Feb-19 19:40 34.208252 -118.490425 189 806ft 10kts
04-Feb-19 19:41 34.204087 -118.490631 215 806ft 13kts
04-Feb-19 19:42 34.203620 -118.491432 277 806ft 0kts

Navigation Log

Ident Type
Flight plan parsing failed, navigation log unavailable